Time;durP1;ratioP1;P1;durP2;ratioP2;P2;SDS_P1;SDS_P2;PMS_P1;PMS_P2;Temp;Humidity;BMP_temperature;BMP_pressure;BME280_temperature;BME280_humidity;BME280_pressure;Samples;Min_cycle;Max_cycle;Signal;HPM_P1;HPM_P2
2022/11/27 00:01:40;;;;;;;11.40;4.68;;;;;;;11.14;65.17;102430.75;5051078;28;20069;-43
2022/11/27 00:04:07;;;;;;;12.85;4.93;;;;;;;11.09;65.63;102429.72;5051500;28;20523;-44
2022/11/27 00:06:34;;;;;;;17.33;5.20;;;;;;;10.92;66.10;102421.25;5050381;28;20047;-44
2022/11/27 00:09:01;;;;;;;13.98;5.07;;;;;;;11.07;65.71;102406.16;5050937;28;20032;-44
2022/11/27 00:11:28;;;;;;;12.80;4.80;;;;;;;11.01;65.87;102392.00;5050777;28;20397;-45
2022/11/27 00:13:54;;;;;;;13.25;4.78;;;;;;;10.81;66.50;102383.47;5050933;28;20017;-41
2022/11/27 00:16:24;;;;;;;12.05;4.75;;;;;;;10.89;66.13;102385.53;5051027;28;20029;-47
2022/11/27 00:18:49;;;;;;;13.45;4.60;;;;;;;10.94;65.97;102394.41;5050834;28;20032;-47
2022/11/27 00:21:21;;;;;;;14.70;4.50;;;;;;;10.89;66.33;102388.13;5050705;28;20029;-46
2022/11/27 00:23:46;;;;;;;12.75;4.63;;;;;;;10.76;66.26;102375.47;5050741;28;20389;-41
2022/11/27 00:26:13;;;;;;;9.90;4.28;;;;;;;10.67;66.61;102377.75;5050670;28;20111;-44
2022/11/27 00:28:39;;;;;;;11.15;4.53;;;;;;;10.74;65.88;102378.84;5050640;28;20036;-43
2022/11/27 00:31:11;;;;;;;12.38;4.43;;;;;;;10.86;65.82;102381.91;5050707;28;20021;-44
2022/11/27 00:33:36;;;;;;;11.43;4.20;;;;;;;10.90;65.58;102389.91;5050593;28;20047;-43
2022/11/27 00:36:04;;;;;;;12.10;4.32;;;;;;;10.94;66.02;102390.91;5050457;28;20024;-44
2022/11/27 00:38:29;;;;;;;10.63;3.90;;;;;;;10.98;65.51;102385.84;5050650;28;20024;-42
2022/11/27 00:41:17;;;;;;;11.60;3.75;;;;;;;11.09;65.09;102383.63;5050270;28;20021;-44
2022/11/27 00:43:43;;;;;;;15.18;4.03;;;;;;;11.09;65.37;102380.13;5050556;28;20021;-45
2022/11/27 00:46:08;;;;;;;14.20;4.43;;;;;;;11.04;65.39;102379.94;5050318;28;20032;-49
2022/11/27 00:48:34;;;;;;;10.95;4.00;;;;;;;11.00;65.38;102385.91;5050291;28;20027;-44
2022/11/27 00:51:01;;;;;;;11.23;3.80;;;;;;;10.85;65.70;102382.75;5050059;28;20029;-46
2022/11/27 00:53:27;;;;;;;11.00;4.15;;;;;;;10.98;65.59;102378.00;5050092;28;20025;-45
2022/11/27 00:55:54;;;;;;;10.10;3.90;;;;;;;10.96;65.59;102373.59;5050519;28;20104;-44
2022/11/27 00:58:19;;;;;;;14.82;4.15;;;;;;;10.92;65.61;102369.06;5050343;28;20017;-43
2022/11/27 01:00:44;;;;;;;10.18;4.22;;;;;;;11.05;65.23;102368.69;5050355;28;20024;-42
2022/11/27 01:03:10;;;;;;;14.55;4.18;;;;;;;11.11;64.80;102374.09;5049773;28;20028;-46
2022/11/27 01:05:36;;;;;;;12.52;4.13;;;;;;;11.17;64.49;102370.81;5049942;28;20538;-44
2022/11/27 01:08:01;;;;;;;10.75;3.67;;;;;;;11.20;64.76;102370.94;5048512;28;20059;-44
2022/11/27 01:10:27;;;;;;;10.43;3.63;;;;;;;11.20;64.94;102370.94;5050005;28;20469;-43
2022/11/27 01:12:52;;;;;;;10.70;3.92;;;;;;;11.22;64.63;102364.06;5050301;28;20037;-43
2022/11/27 01:15:17;;;;;;;14.23;3.90;;;;;;;11.07;65.01;102366.13;5050050;28;20021;-43
2022/11/27 01:17:43;;;;;;;11.73;3.80;;;;;;;11.21;64.57;102368.41;5050351;28;20373;-42
2022/11/27 01:20:08;;;;;;;10.27;4.03;;;;;;;11.19;64.75;102362.22;5049850;28;20121;-48
2022/11/27 01:22:34;;;;;;;13.95;3.90;;;;;;;10.97;64.93;102349.28;5049871;28;20017;-42
2022/11/27 01:24:59;;;;;;;11.00;3.83;;;;;;;11.07;64.82;102340.91;5049986;28;20440;-42
2022/11/27 01:27:24;;;;;;;8.40;3.50;;;;;;;11.23;64.27;102342.31;5048439;28;20112;-48
2022/11/27 01:29:49;;;;;;;8.85;3.92;;;;;;;11.33;64.18;102327.03;5048560;28;20033;-43
2022/11/27 01:32:15;;;;;;;9.98;3.50;;;;;;;11.30;63.86;102326.03;5049291;28;20104;-43
2022/11/27 01:34:40;;;;;;;12.32;3.53;;;;;;;11.31;64.21;102317.38;5050063;28;20075;-44
2022/11/27 01:37:05;;;;;;;10.82;3.50;;;;;;;11.30;64.11;102315.59;5049839;28;20064;-43
2022/11/27 01:39:31;;;;;;;8.75;3.33;;;;;;;11.22;64.45;102315.31;5049857;28;20025;-46
2022/11/27 01:41:56;;;;;;;10.68;3.60;;;;;;;11.21;64.00;102310.06;5049653;28;20029;-45
2022/11/27 01:44:24;;;;;;;11.32;3.20;;;;;;;11.20;64.19;102303.97;5053285;28;20111;-47
2022/11/27 01:46:49;;;;;;;10.90;3.63;;;;;;;10.98;64.23;102302.31;5052233;28;20223;-47
2022/11/27 01:49:27;;;;;;;8.60;3.53;;;;;;;11.18;64.18;102299.50;5051263;28;20573;-44
2022/11/27 01:51:57;;;;;;;9.85;3.50;;;;;;;11.15;64.03;102292.50;5050350;28;20052;-42
2022/11/27 01:54:27;;;;;;;9.27;3.47;;;;;;;11.23;63.89;102301.44;5050297;28;20029;-44
2022/11/27 01:56:56;;;;;;;9.13;3.60;;;;;;;10.96;64.55;102290.09;5049776;28;20025;-47
2022/11/27 01:59:22;;;;;;;9.77;3.40;;;;;;;11.03;64.51;102286.84;5049612;28;20104;-42
2022/11/27 02:01:48;;;;;;;9.15;3.72;;;;;;;11.17;63.98;102285.56;5049059;28;20056;-44
2022/11/27 02:04:13;;;;;;;10.52;3.47;;;;;;;11.06;63.98;102278.22;5049427;28;20512;-46
2022/11/27 02:06:39;;;;;;;10.50;3.50;;;;;;;11.34;63.81;102273.94;5049805;28;20024;-44
2022/11/27 02:09:04;;;;;;;9.07;3.70;;;;;;;11.18;63.78;102273.41;5050436;28;20120;-43
2022/11/27 02:11:38;;;;;;;8.90;3.47;;;;;;;11.11;64.22;102281.88;5052924;28;20055;-42
2022/11/27 02:14:18;;;;;;;8.32;3.63;;;;;;;11.34;64.10;102284.41;5053566;28;20029;-43
2022/11/27 02:16:49;;;;;;;7.93;3.05;;;;;;;11.33;63.71;102286.97;5053703;28;20070;-48
2022/11/27 02:19:23;;;;;;;12.43;3.22;;;;;;;11.35;63.59;102280.94;5053317;28;20021;-44
2022/11/27 02:21:57;;;;;;;11.10;3.55;;;;;;;11.31;63.51;102288.66;5053038;28;20134;-44
2022/11/27 02:24:31;;;;;;;;;;;;;;;11.19;63.91;102285.63;5053589;28;20017;-41
2022/11/27 02:27:02;;;;;;;9.25;3.20;;;;;;;11.30;63.57;102286.88;5053143;28;19960;-42
2022/11/27 02:29:31;;;;;;;9.50;3.15;;;;;;;11.56;62.89;102293.81;5053219;28;20036;-48
2022/11/27 02:32:06;;;;;;;10.35;3.35;;;;;;;11.40;63.31;102292.44;5052310;28;20032;-43
2022/11/27 02:34:31;;;;;;;;;;;;;;;11.46;63.16;102278.72;5053770;28;20049;-41
2022/11/27 02:37:02;;;;;;;7.43;3.13;;;;;;;11.53;62.97;102287.59;5052730;28;19967;-47
2022/11/27 02:39:51;;;;;;;12.70;3.55;;;;;;;11.48;62.66;102274.41;5052936;28;20273;-44
2022/11/27 02:42:19;;;;;;;10.52;3.10;;;;;;;11.53;63.00;102280.66;5032530;28;20402;-43
2022/11/27 02:44:58;;;;;;;7.38;3.22;;;;;;;11.54;62.68;102269.38;5052915;28;20027;-47
2022/11/27 02:47:26;;;;;;;10.85;3.40;;;;;;;11.56;63.02;102270.31;5053161;28;20537;-43
2022/11/27 02:49:55;;;;;;;9.18;3.17;;;;;;;11.42;63.16;102253.31;5052984;28;20120;-43
2022/11/27 02:52:24;;;;;;;8.70;3.42;;;;;;;11.44;63.15;102266.44;5052757;28;20366;-44
2022/11/27 02:54:52;;;;;;;11.98;3.50;;;;;;;11.43;63.48;102265.53;5052675;28;20021;-45
2022/11/27 02:57:20;;;;;;;10.75;3.75;;;;;;;11.58;62.70;102263.44;5053101;28;20050;-44
2022/11/27 02:59:46;;;;;;;10.38;3.50;;;;;;;11.39;63.00;102271.50;5054425;28;20028;-45
2022/11/27 03:02:18;;;;;;;9.88;3.42;;;;;;;11.39;62.87;102274.13;5077686;23;20021;-45
2022/11/27 03:04:49;;;;;;;14.75;3.60;;;;;;;11.27;63.21;102266.78;5054988;28;20037;-43
2022/11/27 03:07:22;;;;;;;8.57;3.42;;;;;;;11.64;62.69;102266.22;5053814;28;20099;-45
2022/11/27 03:09:51;;;;;;;9.13;3.30;;;;;;;11.38;62.87;102262.78;5053334;28;20013;-43
2022/11/27 03:12:17;;;;;;;11.07;3.70;;;;;;;11.59;62.70;102261.69;5053607;28;20025;-43
2022/11/27 03:14:45;;;;;;;12.10;3.55;;;;;;;11.49;62.62;102260.50;5053020;28;20511;-44
2022/11/27 03:17:29;;;;;;;9.48;3.50;;;;;;;11.64;62.21;102247.94;5053182;28;20021;-45
2022/11/27 03:20:07;;;;;;;7.40;3.60;;;;;;;11.52;62.53;102246.69;5051296;28;20349;-42
2022/11/27 03:22:32;;;;;;;13.32;3.65;;;;;;;11.45;62.82;102242.09;5052351;28;20049;-43
2022/11/27 03:24:58;;;;;;;14.05;3.50;;;;;;;11.44;62.69;102248.16;5052913;28;20546;-45
2022/11/27 03:27:37;;;;;;;8.63;3.10;;;;;;;11.47;62.32;102254.34;5053034;28;20036;-44
2022/11/27 03:30:06;;;;;;;10.80;3.60;;;;;;;11.57;61.74;102251.22;5052779;28;20032;-43
2022/11/27 03:32:31;;;;;;;14.20;3.30;;;;;;;11.56;61.99;102243.31;5052431;28;20033;-47
2022/11/27 03:34:57;;;;;;;9.35;3.15;;;;;;;11.58;61.82;102245.16;5053150;28;20418;-48
2022/11/27 03:37:23;;;;;;;9.63;3.20;;;;;;;11.49;62.13;102242.22;5052847;28;20031;-43
2022/11/27 03:39:50;;;;;;;10.98;3.15;;;;;;;11.46;62.23;102244.75;5051467;28;20094;-44
2022/11/27 03:42:30;;;;;;;8.98;3.40;;;;;;;11.52;62.01;102238.84;5052912;28;20385;-44
2022/11/27 03:45:15;;;;;;;9.93;3.13;;;;;;;11.52;62.25;102233.63;5053372;28;20064;-45
2022/11/27 03:48:13;;;;;;;11.45;3.70;;;;;;;11.40;62.52;102229.75;5053182;28;20103;-43
2022/11/27 03:51:03;;;;;;;10.23;3.17;;;;;;;11.58;61.50;102228.59;5052559;28;20033;-44
2022/11/27 03:54:13;;;;;;;9.93;3.10;;;;;;;11.66;61.63;102234.91;5051992;28;20025;-43
2022/11/27 03:56:55;;;;;;;10.20;3.15;;;;;;;11.53;62.05;102237.97;5009287;28;20037;-44
2022/11/27 03:59:30;;;;;;;9.30;2.90;;;;;;;11.65;62.04;102235.75;5047985;28;20203;-43
2022/11/27 04:01:55;;;;;;;8.82;3.15;;;;;;;11.30;62.51;102235.53;5052061;28;20075;-48
2022/11/27 04:04:20;;;;;;;8.35;3.00;;;;;;;11.22;62.84;102242.22;5053317;28;20649;-44
2022/11/27 04:06:46;;;;;;;12.05;2.95;;;;;;;11.15;62.87;102227.22;5052981;28;20021;-43
2022/11/27 04:09:11;;;;;;;8.57;3.30;;;;;;;11.58;62.10;102226.88;5052092;28;20025;-43
2022/11/27 04:11:36;;;;;;;11.93;3.42;;;;;;;11.31;63.47;102228.59;5050788;28;20033;-42
2022/11/27 04:14:02;;;;;;;7.30;3.17;;;;;;;11.53;62.64;102236.25;5051233;28;20083;-46
2022/11/27 04:16:27;;;;;;;8.68;3.00;;;;;;;11.23;64.52;102237.91;5052143;28;20021;-43
2022/11/27 04:18:52;;;;;;;9.35;3.03;;;;;;;11.34;63.71;102232.19;5051617;28;20051;-43
2022/11/27 04:21:18;;;;;;;12.02;3.10;;;;;;;11.53;63.50;102237.97;5050843;28;20396;-42
2022/11/27 04:23:43;;;;;;;12.60;3.20;;;;;;;11.19;65.11;102234.31;5050920;28;20087;-42
2022/11/27 04:26:08;;;;;;;11.07;3.42;;;;;;;11.23;64.91;102235.28;5050579;28;20433;-43
2022/11/27 04:28:34;;;;;;;10.48;3.05;;;;;;;11.26;65.00;102228.47;5051092;28;20020;-43
2022/11/27 04:31:00;;;;;;;9.05;3.22;;;;;;;11.15;65.67;102216.78;5051099;28;20392;-43
2022/11/27 04:33:25;;;;;;;8.02;2.95;;;;;;;11.28;65.16;102218.94;5050713;28;20033;-44
2022/11/27 04:35:51;;;;;;;10.88;2.92;;;;;;;11.43;64.93;102215.94;5051152;28;20025;-47
2022/11/27 04:38:18;;;;;;;11.02;3.38;;;;;;;11.14;65.85;102212.41;5051887;28;20071;-43
2022/11/27 04:40:43;;;;;;;10.45;3.50;;;;;;;11.36;65.36;102204.41;5050628;28;20024;-47
2022/11/27 04:43:08;;;;;;;11.82;3.50;;;;;;;11.16;65.71;102202.03;5051439;28;20025;-44
2022/11/27 04:45:34;;;;;;;8.85;3.00;;;;;;;11.09;66.14;102189.59;5050972;28;20062;-43
2022/11/27 04:47:59;;;;;;;11.50;3.22;;;;;;;11.32;65.79;102191.22;5050938;28;20393;-43
2022/11/27 04:50:24;;;;;;;9.82;3.05;;;;;;;11.01;66.44;102199.78;5051944;28;20132;-43
2022/11/27 04:52:50;;;;;;;8.18;2.72;;;;;;;11.18;65.92;102201.22;5051488;28;20037;-45
2022/11/27 04:55:15;;;;;;;7.45;2.85;;;;;;;11.10;66.42;102202.69;5051905;28;20017;-46
2022/11/27 04:57:40;;;;;;;12.15;3.15;;;;;;;11.12;66.46;102194.91;5052131;28;20047;-44
2022/11/27 05:00:07;;;;;;;9.30;3.03;;;;;;;11.17;66.23;102193.31;5050520;28;20021;-43
2022/11/27 05:02:32;;;;;;;10.30;2.97;;;;;;;11.06;66.23;102181.66;5051675;28;20329;-46
2022/11/27 05:04:58;;;;;;;9.75;3.00;;;;;;;11.24;65.58;102180.53;5051539;28;20051;-45
2022/11/27 05:07:24;;;;;;;7.78;2.83;;;;;;;11.30;65.58;102180.72;5051772;28;20021;-43
2022/11/27 05:09:49;;;;;;;9.25;3.00;;;;;;;11.14;65.81;102183.69;5051228;28;20021;-44
2022/11/27 05:12:14;;;;;;;9.82;3.10;;;;;;;11.20;65.79;102178.66;5051060;28;20032;-43
2022/11/27 05:14:40;;;;;;;8.38;3.05;;;;;;;11.21;65.43;102180.44;5051804;28;20017;-46
2022/11/27 05:17:05;;;;;;;7.00;2.90;;;;;;;11.16;65.40;102175.91;5051226;28;20021;-46
2022/11/27 05:19:31;;;;;;;8.40;2.78;;;;;;;11.23;65.87;102180.47;5051298;28;20064;-43
2022/11/27 05:21:57;;;;;;;7.13;2.70;;;;;;;11.15;65.56;102171.53;5050485;28;20036;-42
2022/11/27 05:24:24;;;;;;;8.95;2.83;;;;;;;11.09;65.99;102167.00;5051182;28;20021;-43
2022/11/27 05:26:50;;;;;;;9.13;2.75;;;;;;;11.17;66.04;102170.72;5050972;28;20027;-46
2022/11/27 05:29:17;;;;;;;9.60;3.38;;;;;;;11.31;65.32;102164.22;5050595;28;20032;-49
2022/11/27 05:31:42;;;;;;;7.75;2.80;;;;;;;11.21;65.81;102161.28;5051496;28;20424;-45
2022/11/27 05:34:08;;;;;;;8.85;2.80;;;;;;;11.27;65.64;102158.88;5050395;28;20021;-45
2022/11/27 05:36:34;;;;;;;7.97;3.05;;;;;;;11.15;65.98;102159.38;5052434;28;20021;-42
2022/11/27 05:39:02;;;;;;;8.88;2.70;;;;;;;11.01;66.22;102151.94;5050514;28;20021;-43
2022/11/27 05:41:27;;;;;;;8.77;2.90;;;;;;;11.12;66.05;102158.38;5050525;28;20017;-42
2022/11/27 05:43:52;;;;;;;7.13;2.53;;;;;;;11.07;66.39;102158.22;5051371;28;20024;-48
2022/11/27 05:46:20;;;;;;;6.40;2.80;;;;;;;10.98;66.37;102155.31;5054746;28;20104;-42
2022/11/27 05:48:46;;;;;;;6.90;2.72;;;;;;;11.24;65.60;102156.13;5054726;28;20022;-41
2022/11/27 05:51:11;;;;;;;10.80;3.08;;;;;;;11.12;66.33;102154.03;5054316;28;20384;-44
2022/11/27 05:53:37;;;;;;;10.57;2.70;;;;;;;10.99;66.29;102149.25;5055100;28;20021;-42
2022/11/27 05:56:05;;;;;;;10.07;2.67;;;;;;;11.11;66.22;102144.44;5054660;28;20101;-42
2022/11/27 05:58:31;;;;;;;9.15;2.97;;;;;;;11.01;66.47;102142.38;5054071;28;20025;-42
2022/11/27 06:00:56;;;;;;;6.68;2.70;;;;;;;11.05;66.12;102139.03;5054002;28;20044;-42
2022/11/27 06:03:22;;;;;;;6.00;2.72;;;;;;;11.13;66.09;102137.53;5054126;28;20025;-44
2022/11/27 06:05:47;;;;;;;8.00;2.80;;;;;;;10.96;66.75;102131.81;5054568;28;20024;-43
2022/11/27 06:08:12;;;;;;;6.68;2.33;;;;;;;10.99;66.75;102133.59;5054189;28;20028;-42
2022/11/27 06:10:38;;;;;;;7.55;2.80;;;;;;;11.07;66.12;102129.53;5053940;28;20103;-45
2022/11/27 06:13:05;;;;;;;10.00;2.55;;;;;;;11.07;66.53;102142.56;5054115;28;20048;-42
2022/11/27 06:15:30;;;;;;;5.93;2.42;;;;;;;10.99;66.56;102138.81;5053864;28;20051;-41
2022/11/27 06:17:55;;;;;;;8.07;2.50;;;;;;;10.78;67.10;102141.66;5053740;28;20033;-39
2022/11/27 06:20:21;;;;;;;7.10;2.53;;;;;;;10.96;67.07;102123.97;5053189;28;20028;-41
2022/11/27 06:22:46;;;;;;;8.13;2.80;;;;;;;10.95;66.85;102122.19;5053486;28;20017;-48
2022/11/27 06:25:11;;;;;;;7.55;2.38;;;;;;;10.88;67.02;102117.63;5054409;28;20094;-46
2022/11/27 06:27:37;;;;;;;9.27;2.63;;;;;;;10.74;67.44;102113.66;5054292;28;20032;-41
2022/11/27 06:30:03;;;;;;;9.05;2.88;;;;;;;10.91;66.72;102104.69;5053782;28;20104;-43
2022/11/27 06:32:29;;;;;;;7.53;2.63;;;;;;;10.70;67.73;102109.19;5053013;28;20025;-42
2022/11/27 06:34:54;;;;;;;9.20;2.58;;;;;;;10.95;67.07;102114.38;5053911;28;20033;-44
2022/11/27 06:37:20;;;;;;;6.82;2.40;;;;;;;10.96;66.77;102110.03;5053584;28;20132;-44
2022/11/27 06:39:47;;;;;;;6.00;2.47;;;;;;;10.90;66.65;102100.31;5053595;28;20029;-47
2022/11/27 06:42:13;;;;;;;5.75;2.40;;;;;;;11.02;66.67;102096.28;5053435;28;20075;-43
2022/11/27 06:44:38;;;;;;;6.60;2.50;;;;;;;10.96;66.70;102090.06;5053542;28;20497;-43
2022/11/27 06:47:03;;;;;;;4.88;2.40;;;;;;;11.01;66.74;102084.09;5053856;28;20028;-41
2022/11/27 06:49:29;;;;;;;7.85;2.60;;;;;;;11.05;66.48;102086.81;5053454;28;20032;-42
2022/11/27 06:51:54;;;;;;;6.75;2.30;;;;;;;10.95;67.15;102077.84;5052948;28;20433;-41
2022/11/27 06:54:19;;;;;;;5.95;2.22;;;;;;;10.92;67.20;102066.41;5053217;28;20512;-42
2022/11/27 06:56:44;;;;;;;6.35;2.25;;;;;;;10.85;67.08;102064.47;5053135;28;20028;-46
2022/11/27 06:59:14;;;;;;;7.47;2.25;;;;;;;11.02;66.60;102064.97;5053276;28;20135;-44
2022/11/27 07:01:40;;;;;;;5.72;2.05;;;;;;;10.81;67.38;102060.88;5053230;28;20512;-43
2022/11/27 07:04:05;;;;;;;7.40;2.25;;;;;;;10.96;66.58;102053.53;5053159;28;20037;-46
2022/11/27 07:06:30;;;;;;;6.00;2.05;;;;;;;10.93;67.20;102053.41;5053214;28;20110;-42
2022/11/27 07:08:56;;;;;;;6.05;2.25;;;;;;;10.89;67.44;102045.47;5053104;28;20021;-43
2022/11/27 07:11:24;;;;;;;4.40;2.10;;;;;;;10.94;66.87;102049.09;5053207;28;20037;-44
2022/11/27 07:13:50;;;;;;;8.55;2.35;;;;;;;10.71;67.45;102047.50;5053162;28;20029;-42
2022/11/27 07:16:17;;;;;;;6.28;2.00;;;;;;;11.06;66.40;102043.34;5053579;28;20093;-44
2022/11/27 07:18:48;;;;;;;5.10;2.10;;;;;;;10.89;66.78;102043.72;5053972;28;20027;-47
2022/11/27 07:21:13;;;;;;;6.82;1.92;;;;;;;11.01;66.35;102043.22;5053955;28;20021;-42
2022/11/27 07:23:39;;;;;;;4.65;2.00;;;;;;;11.12;66.10;102030.47;5055788;28;20036;-45
2022/11/27 07:26:19;;;;;;;6.65;2.20;;;;;;;10.72;67.85;102031.91;5055435;28;20029;-45
2022/11/27 07:28:45;;;;;;;9.05;2.13;;;;;;;10.99;66.68;102037.06;5055682;28;20531;-43
2022/11/27 07:31:12;;;;;;;8.48;2.20;;;;;;;10.95;66.85;102041.31;5051784;28;20025;-42
2022/11/27 07:33:37;;;;;;;6.10;2.42;;;;;;;11.10;66.23;102033.03;5053726;28;20136;-42
2022/11/27 07:36:09;;;;;;;7.88;2.15;;;;;;;10.91;66.64;102026.41;5054359;28;20052;-44
2022/11/27 07:38:34;;;;;;;7.80;2.45;;;;;;;10.99;66.56;102037.06;5053494;28;20017;-42
2022/11/27 07:41:03;;;;;;;6.15;2.15;;;;;;;10.95;66.83;102040.44;5053547;28;20099;-42
2022/11/27 07:43:30;;;;;;;6.13;2.30;;;;;;;11.07;66.10;102042.50;5053737;28;20085;-44
2022/11/27 07:45:56;;;;;;;6.05;2.28;;;;;;;11.22;65.75;102045.59;5053481;28;20040;-45
2022/11/27 07:48:21;;;;;;;6.40;2.25;;;;;;;11.19;65.70;102030.72;5053605;28;20025;-43
2022/11/27 07:50:47;;;;;;;6.82;2.40;;;;;;;11.11;65.66;102026.09;5052757;28;20029;-42
2022/11/27 07:53:12;;;;;;;5.95;2.28;;;;;;;11.22;65.66;102030.78;5053097;28;20071;-45
2022/11/27 07:55:38;;;;;;;5.07;2.25;;;;;;;11.33;65.14;102034.63;5053384;28;20035;-46
2022/11/27 07:58:04;;;;;;;5.28;2.13;;;;;;;11.19;65.37;102028.09;5053628;28;20031;-43
2022/11/27 08:00:29;;;;;;;6.85;2.35;;;;;;;11.09;65.31;102031.28;5052659;28;20024;-42
2022/11/27 08:02:55;;;;;;;5.72;2.20;;;;;;;11.27;65.03;102028.34;5053253;28;20369;-42
2022/11/27 08:05:20;;;;;;;8.57;2.50;;;;;;;11.12;65.10;102025.25;5053790;28;20074;-40
2022/11/27 08:07:45;;;;;;;6.05;2.50;;;;;;;10.95;65.92;102023.06;5052779;28;20025;-42
2022/11/27 08:10:11;;;;;;;7.32;2.50;;;;;;;11.22;65.35;102027.31;5053527;28;20028;-43
2022/11/27 08:12:36;;;;;;;7.65;2.80;;;;;;;11.24;65.63;102023.91;5051605;28;20112;-44
2022/11/27 08:15:04;;;;;;;5.60;2.40;;;;;;;11.34;64.66;102012.00;5052038;28;20060;-42
2022/11/27 08:17:29;;;;;;;6.38;2.50;;;;;;;11.33;64.93;102015.47;5052031;28;20024;-45
2022/11/27 08:19:55;;;;;;;5.85;2.58;;;;;;;11.24;65.21;102012.56;5052763;28;20112;-45
2022/11/27 08:22:20;;;;;;;7.38;2.75;;;;;;;11.27;65.15;102017.91;5051976;28;20441;-42
2022/11/27 08:24:46;;;;;;;7.95;2.58;;;;;;;11.30;65.28;102008.41;5052622;28;20060;-46
2022/11/27 08:27:12;;;;;;;6.53;2.40;;;;;;;11.36;65.00;102021.63;5052028;28;20044;-42
2022/11/27 08:29:38;;;;;;;7.95;2.80;;;;;;;11.45;65.08;102017.53;5052207;28;20051;-43
2022/11/27 08:32:04;;;;;;;6.47;2.83;;;;;;;11.35;65.61;102022.47;5052475;28;20209;-43
2022/11/27 08:34:30;;;;;;;8.98;2.90;;;;;;;11.30;65.80;102018.84;5052902;28;20020;-42
2022/11/27 08:36:55;;;;;;;7.43;2.60;;;;;;;11.30;65.88;102020.56;5052577;28;20140;-41
2022/11/27 08:39:20;;;;;;;9.50;3.03;;;;;;;11.14;66.59;102014.03;5053049;28;20492;-45
2022/11/27 08:41:46;;;;;;;7.30;3.08;;;;;;;10.71;68.27;102011.88;5051089;28;20052;-41
2022/11/27 08:44:11;;;;;;;5.95;2.90;;;;;;;10.86;67.87;102012.31;5049580;28;20468;-42
2022/11/27 08:46:36;;;;;;;7.82;3.05;;;;;;;11.10;67.20;102012.16;5051699;28;20032;-41
2022/11/27 08:49:02;;;;;;;6.22;2.75;;;;;;;11.07;67.67;102013.81;5051278;28;20163;-44
2022/11/27 08:51:27;;;;;;;7.78;3.05;;;;;;;11.12;67.47;102018.31;5051055;28;20036;-45
2022/11/27 08:53:52;;;;;;;6.10;2.88;;;;;;;11.16;67.63;102009.72;5050969;28;20439;-42
2022/11/27 08:56:21;;;;;;;6.38;2.83;;;;;;;11.17;67.05;102018.44;5051099;28;20043;-42
2022/11/27 08:58:47;;;;;;;7.43;3.35;;;;;;;11.07;67.64;102016.41;5051465;28;20103;-42
2022/11/27 09:01:21;;;;;;;7.95;3.15;;;;;;;10.93;68.41;102009.06;5052425;28;20071;-43
2022/11/27 09:03:47;;;;;;;7.93;2.92;;;;;;;11.20;67.50;102009.00;5051238;28;20025;-44
2022/11/27 09:06:15;;;;;;;8.35;2.80;;;;;;;11.25;67.78;102014.34;5051305;28;20388;-47
2022/11/27 09:08:42;;;;;;;7.78;3.08;;;;;;;10.99;68.59;102011.84;5050761;28;20028;-45
2022/11/27 09:11:08;;;;;;;6.65;3.20;;;;;;;10.96;68.57;102017.00;5050196;28;20104;-46
2022/11/27 09:13:35;;;;;;;8.60;3.13;;;;;;;11.06;68.56;102007.69;5050765;28;20021;-44
2022/11/27 09:16:02;;;;;;;9.85;3.28;;;;;;;10.81;68.94;102003.47;5049293;28;20021;-46
2022/11/27 09:18:27;;;;;;;8.10;3.33;;;;;;;11.04;68.64;102000.69;5049656;28;20599;-46
2022/11/27 09:21:00;;;;;;;7.40;3.00;;;;;;;11.18;68.68;102002.84;5050094;28;20132;-46
2022/11/27 09:23:26;;;;;;;9.55;3.40;;;;;;;11.23;68.85;102009.06;5049812;28;20059;-41
2022/11/27 09:25:52;;;;;;;8.93;3.30;;;;;;;11.34;68.15;102005.03;5050390;28;20021;-47
2022/11/27 09:28:17;;;;;;;5.95;3.08;;;;;;;11.43;68.18;102007.03;5051134;28;20041;-46
2022/11/27 09:30:43;;;;;;;8.65;3.40;;;;;;;11.26;68.07;101997.84;5050596;28;20036;-45
2022/11/27 09:33:08;;;;;;;7.32;3.30;;;;;;;11.39;68.11;101995.63;5050216;28;20078;-42
2022/11/27 09:35:36;;;;;;;7.65;3.38;;;;;;;11.26;68.72;101997.84;5049985;28;20017;-47
2022/11/27 09:38:01;;;;;;;8.80;3.50;;;;;;;11.31;68.61;101991.91;5050089;28;20048;-46
2022/11/27 09:40:27;;;;;;;9.07;3.42;;;;;;;11.19;68.83;101994.16;5049914;28;20025;-43
2022/11/27 09:43:01;;;;;;;7.43;3.20;;;;;;;11.47;68.38;101980.16;5049913;28;20021;-46
2022/11/27 09:45:27;;;;;;;7.32;3.25;;;;;;;11.26;69.15;101980.47;5050262;28;20120;-47
2022/11/27 09:47:58;;;;;;;6.85;3.15;;;;;;;11.32;68.83;101977.13;5050353;28;20104;-47
2022/11/27 09:50:27;;;;;;;7.75;3.25;;;;;;;11.14;69.05;101984.44;5049987;28;20044;-44
2022/11/27 09:52:52;;;;;;;8.50;3.42;;;;;;;11.31;68.92;101981.47;5050204;28;20036;-48
2022/11/27 09:55:31;;;;;;;8.73;3.60;;;;;;;11.30;68.64;101976.19;5049989;28;20520;-43
2022/11/27 09:58:14;;;;;;;8.90;3.50;;;;;;;11.31;68.88;101971.03;5049909;28;20349;-46
2022/11/27 10:00:45;;;;;;;8.10;3.60;;;;;;;11.29;68.86;101970.09;5049340;28;20055;-47
2022/11/27 10:03:18;;;;;;;10.68;3.70;;;;;;;11.45;68.36;101974.03;5049599;28;20025;-46
2022/11/27 10:06:03;;;;;;;7.43;3.65;;;;;;;11.53;68.53;101966.38;5051278;28;20464;-44
2022/11/27 10:09:02;;;;;;;7.00;3.25;;;;;;;11.56;68.59;101969.06;5050773;28;20017;-44
2022/11/27 10:11:41;;;;;;;7.43;3.28;;;;;;;11.57;68.16;101968.25;5050653;28;20036;-50
2022/11/27 10:14:27;;;;;;;9.30;3.58;;;;;;;11.53;68.46;101966.38;5049976;28;20025;-45
2022/11/27 10:17:10;;;;;;;7.45;3.50;;;;;;;11.35;68.87;101958.94;5049565;28;20028;-44
2022/11/27 10:19:49;;;;;;;10.00;3.78;;;;;;;11.43;69.02;101961.75;5049572;28;20037;-43
2022/11/27 10:22:21;;;;;;;7.18;3.50;;;;;;;11.53;68.90;101955.91;5049159;28;20040;-42
2022/11/27 10:25:02;;;;;;;9.48;3.30;;;;;;;11.49;68.81;101944.53;5049636;28;20476;-45
2022/11/27 10:27:40;;;;;;;8.10;3.65;;;;;;;11.13;70.15;101947.03;5050747;28;20033;-49
2022/11/27 10:30:15;;;;;;;8.52;3.70;;;;;;;11.37;69.38;101952.91;5051233;28;20408;-43
2022/11/27 10:32:41;;;;;;;6.75;3.20;;;;;;;11.23;69.55;101946.41;5053303;28;20021;-49
2022/11/27 10:35:15;;;;;;;6.47;3.40;;;;;;;11.35;69.16;101951.97;5053125;28;20035;-43
2022/11/27 10:37:47;;;;;;;10.15;3.80;;;;;;;11.16;69.53;101941.88;5053364;28;20024;-44
2022/11/27 10:40:13;;;;;;;7.57;3.55;;;;;;;11.25;69.94;101947.34;5053944;28;20505;-44
2022/11/27 10:43:15;;;;;;;9.13;3.67;;;;;;;11.40;69.39;101937.31;5053206;28;20029;-46
2022/11/27 10:45:49;;;;;;;9.82;3.67;;;;;;;11.51;69.38;101932.41;5040759;28;20056;-45
2022/11/27 10:48:15;;;;;;;9.40;4.00;;;;;;;11.57;69.30;101929.06;5053505;28;20384;-45
2022/11/27 10:50:42;;;;;;;10.55;4.13;;;;;;;11.68;69.06;101919.78;5052863;28;20028;-43
2022/11/27 10:53:25;;;;;;;7.50;3.67;;;;;;;11.56;69.06;101914.22;5053975;28;20218;-45
2022/11/27 10:56:14;;;;;;;9.07;4.18;;;;;;;11.74;68.96;101901.66;5053931;28;20063;-44
2022/11/27 10:58:47;;;;;;;9.02;4.05;;;;;;;11.67;68.95;101898.00;5053495;28;20025;-43
2022/11/27 11:01:15;;;;;;;11.13;4.10;;;;;;;11.65;69.05;101889.22;5053467;28;20025;-49
2022/11/27 11:03:41;;;;;;;7.75;3.80;;;;;;;11.46;69.22;101889.63;5053484;28;20481;-44
2022/11/27 11:06:12;;;;;;;8.77;4.07;;;;;;;11.56;69.35;101893.34;5053247;28;20154;-46
2022/11/27 11:08:38;;;;;;;8.57;4.10;;;;;;;11.46;69.29;101880.91;5053161;28;20048;-45
2022/11/27 11:11:06;;;;;;;8.07;4.20;;;;;;;11.81;68.87;101880.09;5053183;28;20033;-45
2022/11/27 11:13:41;;;;;;;8.02;4.07;;;;;;;11.91;68.42;101878.56;5054148;28;20029;-45
2022/11/27 11:16:10;;;;;;;10.38;4.10;;;;;;;11.74;68.59;101880.78;5053819;28;20481;-45
2022/11/27 11:18:49;;;;;;;8.77;4.22;;;;;;;11.69;68.75;101871.91;5052608;28;20029;-47
2022/11/27 11:21:22;;;;;;;11.32;4.50;;;;;;;11.53;69.14;101875.84;5053333;28;20220;-45
2022/11/27 11:23:59;;;;;;;10.10;4.43;;;;;;;11.64;68.92;101869.19;5053517;28;20566;-44
2022/11/27 11:26:30;;;;;;;10.32;4.55;;;;;;;11.45;69.50;101876.53;5055156;28;20032;-48
2022/11/27 11:28:59;;;;;;;10.40;4.57;;;;;;;11.55;68.88;101870.69;5055079;28;20317;-49
2022/11/27 11:31:33;;;;;;;9.25;4.45;;;;;;;11.54;69.07;101868.91;5054799;28;20059;-47